Time;durP1;ratioP1;P1;durP2;ratioP2;P2;SDS_P1;SDS_P2;PMS_P1;PMS_P2;Temp;Humidity;BMP_temperature;BMP_pressure;BME280_temperature;BME280_humidity;BME280_pressure;Samples;Min_cycle;Max_cycle;Signal;HPM_P1;HPM_P2
2022/07/03 00:01:59;;;;;;;3.72;2.08;;;;;;;19.13;70.10;101746.22;5098994;28;20080;-50
2022/07/03 00:04:25;;;;;;;3.35;1.88;;;;;;;19.16;69.89;101741.00;5102333;28;20024;-51
2022/07/03 00:06:52;;;;;;;6.57;2.10;;;;;;;19.16;69.98;101741.00;5100958;28;20040;-50
2022/07/03 00:09:18;;;;;;;4.20;2.33;;;;;;;19.06;69.75;101748.78;5091015;28;20108;-50
2022/07/03 00:11:44;;;;;;;2.90;2.20;;;;;;;19.11;69.70;101745.34;5100761;28;20069;-49
2022/07/03 00:14:09;;;;;;;3.22;1.75;;;;;;;19.00;69.70;101744.41;5099886;28;20122;-50
2022/07/03 00:16:35;;;;;;;4.15;2.10;;;;;;;19.05;69.72;101752.22;5101918;28;20529;-49
2022/07/03 00:19:00;;;;;;;4.18;2.20;;;;;;;19.08;70.08;101760.09;5101094;28;20043;-50
2022/07/03 00:21:41;;;;;;;3.55;2.33;;;;;;;19.13;69.15;101777.50;5099019;28;20714;-48
2022/07/03 00:24:17;;;;;;;2.90;2.58;;;;;;;19.03;68.86;101775.69;5098690;28;20027;-50
2022/07/03 00:26:45;;;;;;;6.30;2.47;;;;;;;18.90;68.99;101779.06;5099169;28;20035;-49
2022/07/03 00:29:12;;;;;;;4.75;2.50;;;;;;;18.79;68.06;101773.75;5103617;28;20027;-50
2022/07/03 00:31:38;;;;;;;4.15;3.15;;;;;;;18.75;68.22;101790.22;5100785;28;20103;-48
2022/07/03 00:34:07;;;;;;;7.93;3.85;;;;;;;18.70;68.66;101787.56;5104826;28;20141;-51
2022/07/03 00:36:36;;;;;;;6.40;5.05;;;;;;;18.74;68.44;101784.13;5101132;28;20483;-50
2022/07/03 00:39:02;;;;;;;8.13;5.78;;;;;;;18.75;68.49;101783.28;5100532;28;20035;-49
2022/07/03 00:41:31;;;;;;;7.40;6.20;;;;;;;18.73;68.95;101790.19;5098082;28;20040;-50
2022/07/03 00:43:57;;;;;;;9.55;6.55;;;;;;;18.74;68.83;101781.50;5083767;28;20035;-50
2022/07/03 00:46:24;;;;;;;9.07;6.90;;;;;;;18.75;68.89;101775.47;5087503;28;20073;-49
2022/07/03 00:48:51;;;;;;;9.35;7.43;;;;;;;18.74;68.91;101767.63;5101701;28;20102;-50
2022/07/03 00:51:21;;;;;;;11.57;7.72;;;;;;;18.77;69.12;101769.41;5101048;28;20023;-49
2022/07/03 00:53:50;;;;;;;9.95;8.02;;;;;;;18.77;69.13;101772.88;5103762;28;20039;-49
2022/07/03 00:56:19;;;;;;;9.93;8.20;;;;;;;18.79;68.50;101772.88;5104350;28;20028;-50
2022/07/03 00:58:45;;;;;;;10.27;8.93;;;;;;;18.74;68.74;101776.31;5102018;27;20035;-50
2022/07/03 01:01:15;;;;;;;10.82;8.60;;;;;;;18.77;68.86;101775.47;5103729;28;20104;-49
2022/07/03 01:03:44;;;;;;;9.60;8.32;;;;;;;18.79;68.69;101778.97;5104874;28;20062;-50
2022/07/03 01:06:14;;;;;;;13.82;8.50;;;;;;;18.75;68.36;101775.47;5103804;27;20031;-48
2022/07/03 01:08:48;;;;;;;10.25;8.02;;;;;;;18.75;68.89;101772.88;5099933;28;20032;-50
2022/07/03 01:11:28;;;;;;;10.05;7.93;;;;;;;18.70;68.58;101766.72;5102296;28;20093;-50
2022/07/03 01:14:11;;;;;;;8.32;7.28;;;;;;;18.64;68.97;101778.81;5104470;27;20479;-51
2022/07/03 01:16:54;;;;;;;8.88;7.32;;;;;;;18.66;68.82;101780.53;5103652;28;20038;-50
2022/07/03 01:19:25;;;;;;;11.52;7.07;;;;;;;18.63;68.73;101775.31;5101624;28;20078;-49
2022/07/03 01:22:12;;;;;;;9.93;7.05;;;;;;;18.70;68.16;101778.88;5100723;28;20035;-49
2022/07/03 01:24:52;;;;;;;10.52;6.43;;;;;;;18.62;68.34;101770.94;5101861;28;20053;-49
2022/07/03 01:27:28;;;;;;;9.70;6.05;;;;;;;18.57;68.64;101780.47;5103181;28;20103;-48
2022/07/03 01:30:06;;;;;;;11.63;5.72;;;;;;;18.65;68.13;101775.34;5104193;28;20028;-51
2022/07/03 01:32:57;;;;;;;10.75;5.57;;;;;;;18.49;68.68;101782.97;5103780;28;20108;-51
2022/07/03 01:35:30;;;;;;;8.70;5.30;;;;;;;18.46;68.50;101780.38;5089599;27;20039;-50
2022/07/03 01:38:00;;;;;;;7.70;5.07;;;;;;;18.42;68.64;101772.50;5101990;28;20020;-49
2022/07/03 01:40:26;;;;;;;6.32;4.55;;;;;;;18.40;68.54;101766.41;5086844;28;20019;-50
2022/07/03 01:42:53;;;;;;;7.35;4.35;;;;;;;18.36;68.60;101765.50;5101518;28;20093;-50
2022/07/03 01:45:19;;;;;;;5.45;4.22;;;;;;;18.38;68.09;101771.59;5100860;27;20995;-50
2022/07/03 01:47:46;;;;;;;5.75;3.83;;;;;;;18.34;68.36;101767.22;5103671;27;20110;-48
2022/07/03 01:50:14;;;;;;;5.35;3.80;;;;;;;18.34;68.22;101775.03;5103911;28;20152;-49
2022/07/03 01:52:41;;;;;;;7.10;3.70;;;;;;;18.28;68.09;101776.69;5104822;28;20051;-49
2022/07/03 01:55:09;;;;;;;7.32;3.72;;;;;;;18.33;67.48;101764.59;5102233;28;20039;-51
2022/07/03 01:57:49;;;;;;;4.65;3.35;;;;;;;18.30;67.69;101765.44;5102743;27;20076;-50
2022/07/03 02:00:18;;;;;;;5.43;3.80;;;;;;;18.14;67.95;101774.81;5100930;28;20034;-50
2022/07/03 02:02:57;;;;;;;5.95;3.45;;;;;;;18.19;68.10;101770.50;5102002;28;20039;-49
2022/07/03 02:05:28;;;;;;;;;;;;;;;18.43;66.98;101769.03;5102447;28;20073;-50
2022/07/03 02:07:58;;;;;;;6.28;3.97;;;;;;;18.16;67.79;101765.28;5100773;28;19942;-48
2022/07/03 02:10:29;;;;;;;6.47;3.88;;;;;;;18.08;68.19;101769.53;5102949;28;20020;-50
2022/07/03 02:13:06;;;;;;;5.15;3.70;;;;;;;18.06;68.73;101768.63;5101707;27;20107;-49
2022/07/03 02:15:34;;;;;;;9.85;3.95;;;;;;;17.97;69.01;101758.13;5102016;27;20027;-50
2022/07/03 02:18:22;;;;;;;6.10;4.00;;;;;;;17.99;68.94;101759.00;5100640;28;20035;-50
2022/07/03 02:21:00;;;;;;;5.72;3.80;;;;;;;18.04;68.84;101746.94;5102876;28;20601;-49
2022/07/03 02:23:30;;;;;;;5.88;3.50;;;;;;;17.92;69.05;101750.25;5099954;28;20046;-48
2022/07/03 02:26:00;;;;;;;5.90;3.85;;;;;;;17.94;69.26;101760.69;5102524;28;20051;-50
2022/07/03 02:28:56;;;;;;;5.53;3.47;;;;;;;17.94;68.53;101752.88;5102557;28;20441;-49
2022/07/03 02:31:24;;;;;;;5.50;3.45;;;;;;;17.76;69.68;101760.44;5106230;28;20055;-50
2022/07/03 02:33:56;;;;;;;7.30;3.50;;;;;;;17.68;69.51;101760.31;5102832;27;20027;-47
2022/07/03 02:36:24;;;;;;;5.13;3.90;;;;;;;17.56;69.71;101761.03;5102745;28;20045;-46
2022/07/03 02:38:55;;;;;;;8.43;4.20;;;;;;;17.47;70.26;101760.88;5102960;28;20026;-50
2022/07/03 02:41:27;;;;;;;6.90;4.03;;;;;;;17.48;70.88;101765.25;5101795;28;20487;-49
2022/07/03 02:44:02;;;;;;;4.55;3.50;;;;;;;17.53;70.16;101758.38;5103200;28;20028;-48
2022/07/03 02:46:58;;;;;;;5.88;3.92;;;;;;;17.62;69.53;101763.72;5102299;28;20482;-48
2022/07/03 02:49:44;;;;;;;6.07;3.90;;;;;;;17.46;70.15;101766.94;5103327;28;20024;-49
2022/07/03 02:52:20;;;;;;;7.90;3.90;;;;;;;17.40;70.14;101761.66;5102747;28;20028;-49
2022/07/03 02:54:47;;;;;;;6.50;4.00;;;;;;;17.23;70.44;101760.53;5099013;28;20027;-51
2022/07/03 02:57:16;;;;;;;6.47;3.90;;;;;;;17.21;70.93;101759.66;5101184;28;20077;-49
2022/07/03 02:59:50;;;;;;;4.97;3.55;;;;;;;17.14;71.06;101761.28;5101402;28;20035;-49
2022/07/03 03:02:21;;;;;;;5.03;3.72;;;;;;;17.18;71.04;101759.63;5100787;28;20032;-48
2022/07/03 03:04:57;;;;;;;6.32;3.83;;;;;;;17.14;71.36;101754.34;5096198;28;20038;-50
2022/07/03 03:07:29;;;;;;;6.70;3.97;;;;;;;17.24;70.64;101757.13;5101396;28;20038;-50
2022/07/03 03:09:56;;;;;;;7.18;4.18;;;;;;;17.05;71.13;101755.97;5099847;28;21831;-50
2022/07/03 03:12:31;;;;;;;6.18;3.67;;;;;;;17.04;71.17;101756.78;5102614;28;20093;-49
2022/07/03 03:15:01;;;;;;;4.50;3.47;;;;;;;16.93;71.76;101763.53;5100778;28;20031;-48
2022/07/03 03:17:34;;;;;;;6.82;3.60;;;;;;;16.97;71.76;101768.81;5100627;28;20694;-50
2022/07/03 03:20:01;;;;;;;8.98;3.60;;;;;;;16.99;71.63;101766.25;5099787;28;20046;-50
2022/07/03 03:22:45;;;;;;;7.00;3.70;;;;;;;16.96;71.54;101764.47;5101512;28;20106;-48
2022/07/03 03:25:10;;;;;;;6.97;3.90;;;;;;;16.98;71.89;101769.69;5099765;28;20028;-50
2022/07/03 03:27:36;;;;;;;4.88;3.40;;;;;;;16.92;72.47;101772.19;5102920;28;20080;-51
2022/07/03 03:30:02;;;;;;;5.28;3.60;;;;;;;16.96;72.28;101769.66;5098777;28;20023;-49
2022/07/03 03:32:29;;;;;;;6.22;3.78;;;;;;;16.95;72.33;101777.44;5100908;28;20093;-48
2022/07/03 03:34:54;;;;;;;5.72;3.67;;;;;;;17.01;72.32;101769.75;5102025;28;20441;-49
2022/07/03 03:37:19;;;;;;;4.32;3.58;;;;;;;16.97;71.70;101774.00;5102091;28;20028;-50
2022/07/03 03:39:45;;;;;;;6.13;3.78;;;;;;;16.85;71.97;101774.66;5101497;28;20028;-50
2022/07/03 03:42:10;;;;;;;7.30;3.80;;;;;;;16.82;72.01;101771.16;5102614;28;20032;-50
2022/07/03 03:44:35;;;;;;;6.65;3.60;;;;;;;16.77;72.49;101771.09;5100481;28;20110;-50
2022/07/03 03:47:01;;;;;;;7.13;4.25;;;;;;;16.74;72.69;101775.34;5083130;28;20039;-51
2022/07/03 03:49:28;;;;;;;6.82;3.70;;;;;;;16.77;73.29;101783.19;5100565;28;20157;-50
2022/07/03 03:51:56;;;;;;;5.55;3.58;;;;;;;16.83;73.35;101783.31;5101148;28;20028;-50
2022/07/03 03:54:21;;;;;;;6.03;3.40;;;;;;;16.79;72.92;101784.09;5098798;28;20470;-49
2022/07/03 03:56:46;;;;;;;5.22;3.60;;;;;;;16.84;72.81;101774.66;5101050;28;20043;-51
2022/07/03 03:59:12;;;;;;;5.75;3.20;;;;;;;16.73;72.50;101769.28;5099552;28;20028;-50
2022/07/03 04:01:37;;;;;;;8.95;3.78;;;;;;;16.73;72.77;101766.69;5102437;28;20027;-49
2022/07/03 04:04:03;;;;;;;4.47;3.63;;;;;;;16.80;72.54;101767.66;5099539;28;20527;-51
2022/07/03 04:06:28;;;;;;;6.03;3.40;;;;;;;16.75;72.70;101764.13;5100465;28;20118;-48
2022/07/03 04:08:53;;;;;;;4.95;3.47;;;;;;;16.86;72.94;101767.75;5102492;28;20073;-47
2022/07/03 04:11:19;;;;;;;5.97;3.10;;;;;;;16.86;72.64;101772.94;5101555;28;20058;-49
2022/07/03 04:13:45;;;;;;;6.00;3.47;;;;;;;16.82;72.37;101768.56;5079680;28;20123;-49
2022/07/03 04:16:11;;;;;;;7.00;3.45;;;;;;;16.85;72.57;101768.59;5100261;28;20027;-46
2022/07/03 04:18:37;;;;;;;7.30;3.40;;;;;;;16.82;72.79;101771.16;5101360;28;20033;-49
2022/07/03 04:21:02;;;;;;;6.72;3.20;;;;;;;16.90;72.55;101774.75;5101820;27;20066;-49
2022/07/03 04:23:28;;;;;;;5.15;3.22;;;;;;;16.89;73.13;101775.63;5104149;27;20033;-49
2022/07/03 04:25:53;;;;;;;6.30;3.78;;;;;;;16.92;72.89;101778.25;5104846;28;20489;-50
2022/07/03 04:28:19;;;;;;;4.18;3.20;;;;;;;16.93;72.18;101771.31;5104759;27;20035;-50
2022/07/03 04:30:44;;;;;;;5.10;3.28;;;;;;;16.85;72.64;101781.59;5102135;28;20034;-51
2022/07/03 04:33:09;;;;;;;6.13;3.40;;;;;;;16.74;72.65;101777.94;5105470;27;20035;-51
2022/07/03 04:35:35;;;;;;;6.07;3.47;;;;;;;16.79;72.73;101781.50;5106404;28;20027;-49
2022/07/03 04:38:00;;;;;;;6.47;3.50;;;;;;;16.74;72.98;101789.19;5103753;28;20073;-49
2022/07/03 04:40:25;;;;;;;4.82;3.45;;;;;;;16.73;73.47;101789.19;5104901;28;20417;-47
2022/07/03 04:42:51;;;;;;;8.43;3.80;;;;;;;16.76;73.14;101787.53;5102965;28;20051;-48
2022/07/03 04:45:16;;;;;;;6.32;3.47;;;;;;;16.74;73.38;101794.38;5101771;28;20126;-49
2022/07/03 04:47:42;;;;;;;6.03;3.40;;;;;;;16.81;73.36;101792.81;5104065;28;20032;-50
2022/07/03 04:50:07;;;;;;;4.97;3.35;;;;;;;16.80;73.79;101791.03;5101291;28;20148;-48
2022/07/03 04:52:33;;;;;;;6.22;3.80;;;;;;;16.91;73.56;101786.88;5103547;28;20034;-49
2022/07/03 04:54:58;;;;;;;5.32;3.20;;;;;;;16.91;73.18;101794.69;5104273;28;20114;-49
2022/07/03 04:57:24;;;;;;;4.53;3.03;;;;;;;16.92;73.57;101798.16;5103334;28;20031;-48
2022/07/03 04:59:49;;;;;;;6.07;2.88;;;;;;;16.92;72.60;101798.16;5101166;27;20040;-48
2022/07/03 05:02:14;;;;;;;4.40;3.00;;;;;;;16.91;72.91;101799.88;5100819;28;20039;-50
2022/07/03 05:04:40;;;;;;;5.93;3.13;;;;;;;16.91;73.09;101792.09;5101752;28;20031;-51
2022/07/03 05:07:05;;;;;;;5.35;3.10;;;;;;;16.91;73.51;101796.41;5103305;28;20031;-49
2022/07/03 05:09:30;;;;;;;4.72;2.90;;;;;;;16.95;72.63;101788.69;5105338;27;20024;-47
2022/07/03 05:11:56;;;;;;;3.17;2.72;;;;;;;16.98;72.66;101798.25;5102126;27;20031;-50
2022/07/03 05:14:21;;;;;;;6.85;3.10;;;;;;;17.02;72.77;101800.94;5101475;28;20118;-50
2022/07/03 05:16:47;;;;;;;7.80;3.35;;;;;;;17.03;72.52;101805.28;5102277;28;20047;-50
2022/07/03 05:19:12;;;;;;;6.07;3.20;;;;;;;17.03;72.74;101800.09;5105144;28;20061;-49
2022/07/03 05:21:38;;;;;;;6.93;3.22;;;;;;;17.16;72.72;101802.03;5100244;28;20400;-51
2022/07/03 05:24:03;;;;;;;6.20;3.00;;;;;;;17.19;72.34;101808.16;5103309;28;20035;-50
2022/07/03 05:26:29;;;;;;;5.28;3.35;;;;;;;17.24;72.59;101806.50;5103482;28;20491;-48
2022/07/03 05:28:54;;;;;;;5.03;3.05;;;;;;;17.32;71.76;101805.75;5102740;27;20174;-49
2022/07/03 05:31:19;;;;;;;5.03;3.30;;;;;;;17.39;72.00;101807.59;5104674;27;20081;-49
2022/07/03 05:33:45;;;;;;;6.93;3.40;;;;;;;17.49;71.81;101802.53;5105449;28;20028;-49
2022/07/03 05:36:10;;;;;;;7.57;3.45;;;;;;;17.53;71.15;101807.78;5105914;28;20031;-49
2022/07/03 05:41:19;;;;;;;9.02;3.40;;;;;;;17.70;71.08;101818.44;5106723;28;20568;-50
2022/07/03 05:43:45;;;;;;;8.18;3.25;;;;;;;17.68;71.33;101818.41;5104400;27;20149;-49
2022/07/03 05:46:10;;;;;;;5.72;3.15;;;;;;;17.81;70.94;101821.22;5108097;28;20376;-49
2022/07/03 05:48:36;;;;;;;7.35;3.50;;;;;;;17.87;70.99;101810.91;5109461;28;20024;-50
2022/07/03 05:51:02;;;;;;;8.73;3.00;;;;;;;17.99;70.74;101810.19;5107029;28;20034;-48
2022/07/03 05:53:27;;;;;;;7.43;3.70;;;;;;;18.01;70.27;101804.13;5105917;28;20027;-49
2022/07/03 05:55:53;;;;;;;9.30;3.03;;;;;;;18.12;70.55;101814.69;5105058;28;20067;-48
2022/07/03 05:58:18;;;;;;;6.93;3.10;;;;;;;18.21;71.42;101820.00;5107871;27;20040;-50
2022/07/03 06:00:44;;;;;;;8.30;2.95;;;;;;;18.24;71.34;101817.44;5103070;27;20145;-49
2022/07/03 06:03:10;;;;;;;5.78;2.95;;;;;;;18.30;70.98;101819.22;5099208;28;20463;-50
2022/07/03 06:05:35;;;;;;;8.10;2.70;;;;;;;18.34;70.67;101823.63;5103724;28;20100;-49
2022/07/03 06:08:01;;;;;;;5.78;2.40;;;;;;;18.34;70.38;101826.22;5102658;27;20051;-49
2022/07/03 06:10:28;;;;;;;7.18;2.75;;;;;;;18.32;71.08;101820.13;5105263;27;20031;-48
2022/07/03 06:12:54;;;;;;;9.52;2.70;;;;;;;18.30;70.87;101814.03;5102969;28;20496;-47
2022/07/03 06:15:19;;;;;;;6.50;2.50;;;;;;;18.37;70.38;101832.31;5104830;27;20036;-50
2022/07/03 06:17:45;;;;;;;6.57;2.60;;;;;;;18.51;70.95;101834.25;5101344;28;20036;-49
2022/07/03 06:20:10;;;;;;;8.27;2.40;;;;;;;18.65;70.66;101830.03;5100394;27;20050;-48
2022/07/03 06:22:36;;;;;;;5.63;2.65;;;;;;;18.72;70.32;101826.66;5099044;28;20533;-49
2022/07/03 06:25:02;;;;;;;8.07;2.60;;;;;;;18.78;70.44;101829.31;5104148;27;20039;-50
2022/07/03 06:27:28;;;;;;;6.18;2.40;;;;;;;18.98;69.90;101832.97;5100923;28;20124;-48
2022/07/03 06:29:54;;;;;;;4.65;2.63;;;;;;;19.06;69.81;101821.78;5104463;28;20023;-51
2022/07/03 06:32:19;;;;;;;5.88;2.40;;;;;;;19.12;69.54;101827.91;5104543;28;20092;-50
2022/07/03 06:34:44;;;;;;;4.85;2.20;;;;;;;19.02;70.03;101828.69;5098741;28;20031;-52
2022/07/03 06:37:11;;;;;;;6.60;2.90;;;;;;;19.04;69.41;101829.56;5101684;28;21327;-50
2022/07/03 06:39:36;;;;;;;8.82;2.70;;;;;;;19.05;69.23;101831.34;5098701;28;20037;-47
2022/07/03 06:42:02;;;;;;;4.15;2.00;;;;;;;19.25;70.01;101831.47;5099570;28;20027;-46
2022/07/03 06:44:27;;;;;;;7.55;2.55;;;;;;;19.22;69.32;101832.31;5101321;28;20051;-50
2022/07/03 06:46:52;;;;;;;7.65;2.30;;;;;;;19.28;68.96;101831.50;5102119;27;20414;-55
2022/07/03 06:49:18;;;;;;;9.20;2.45;;;;;;;19.44;70.17;101827.28;5080408;28;20020;-51
2022/07/03 06:51:43;;;;;;;6.88;2.03;;;;;;;19.53;69.40;101828.19;5100576;28;20035;-50
2022/07/03 06:54:09;;;;;;;5.55;1.73;;;;;;;19.61;68.98;101820.47;5097822;28;20039;-51
2022/07/03 06:56:34;;;;;;;5.30;2.00;;;;;;;19.64;68.55;101820.47;5098928;28;20034;-56
2022/07/03 06:58:59;;;;;;;6.05;2.00;;;;;;;19.76;68.51;101832.72;5105021;27;20136;-49
2022/07/03 07:01:25;;;;;;;5.82;1.80;;;;;;;19.86;68.27;101829.31;5102961;28;20016;-51
2022/07/03 07:03:50;;;;;;;4.60;1.75;;;;;;;19.92;67.71;101833.69;5101526;28;20069;-50
2022/07/03 07:06:16;;;;;;;9.38;2.80;;;;;;;20.02;68.60;101827.63;5100672;28;20027;-49
2022/07/03 07:08:41;;;;;;;6.75;1.80;;;;;;;20.09;67.89;101825.06;5101285;28;20479;-51
2022/07/03 07:11:06;;;;;;;7.35;1.83;;;;;;;20.13;66.46;101823.31;5081336;28;20020;-51
2022/07/03 07:13:32;;;;;;;3.75;1.60;;;;;;;20.24;65.81;101823.34;5100696;28;20032;-50
2022/07/03 07:15:57;;;;;;;2.63;1.30;;;;;;;20.29;65.98;101819.91;5100330;28;20074;-51
2022/07/03 07:18:22;;;;;;;4.97;1.38;;;;;;;20.37;65.55;101825.13;5101121;28;20040;-50
2022/07/03 07:20:48;;;;;;;7.20;1.80;;;;;;;20.42;64.89;101828.63;5102006;28;20035;-51
2022/07/03 07:23:13;;;;;;;5.68;1.67;;;;;;;20.48;64.43;101814.75;5102595;28;20036;-59
2022/07/03 07:25:38;;;;;;;5.35;1.40;;;;;;;20.58;64.59;101819.16;5099323;28;20024;-58
2022/07/03 07:28:04;;;;;;;5.38;1.48;;;;;;;20.62;64.18;101826.09;5100007;27;20571;-52
2022/07/03 07:30:29;;;;;;;5.32;1.50;;;;;;;20.70;63.74;101833.97;5099931;28;20039;-51
2022/07/03 07:32:54;;;;;;;7.47;2.13;;;;;;;20.77;64.76;101839.22;5100805;28;20036;-52
2022/07/03 07:35:20;;;;;;;4.75;1.38;;;;;;;20.83;64.03;101841.81;5078796;28;20035;-51
2022/07/03 07:37:45;;;;;;;5.43;1.70;;;;;;;20.95;63.51;101843.59;5082666;28;20031;-51
2022/07/03 07:40:11;;;;;;;3.13;1.50;;;;;;;20.94;62.36;101846.22;5102415;28;20032;-53
2022/07/03 07:42:36;;;;;;;4.50;1.60;;;;;;;21.07;63.22;101843.59;5106577;28;20495;-53
2022/07/03 07:45:02;;;;;;;4.20;1.40;;;;;;;21.10;62.22;101847.94;5102659;28;20032;-51
2022/07/03 07:47:27;;;;;;;6.13;1.33;;;;;;;21.18;62.74;101840.13;5103929;28;20036;-53
2022/07/03 07:49:52;;;;;;;4.63;1.80;;;;;;;21.23;62.31;101849.69;5103372;28;20375;-51
2022/07/03 07:52:18;;;;;;;3.88;1.40;;;;;;;21.33;63.69;101848.84;5102333;28;20058;-53
2022/07/03 07:54:43;;;;;;;5.72;1.67;;;;;;;21.45;61.91;101844.47;5090756;28;20032;-53
2022/07/03 07:57:09;;;;;;;5.25;1.33;;;;;;;21.46;62.29;101847.09;5106409;27;20083;-53
2022/07/03 07:59:34;;;;;;;3.75;1.30;;;;;;;21.50;61.05;101843.59;5106585;28;20031;-52
2022/07/03 08:07:27;;;;;;;4.28;1.50;;;;;;;21.72;60.40;101844.44;5107307;28;20076;-54
2022/07/03 08:09:53;;;;;;;4.45;1.23;;;;;;;21.82;59.89;101850.50;5089446;28;20035;-53
2022/07/03 08:12:19;;;;;;;5.45;1.98;;;;;;;21.78;59.69;101849.66;5104269;28;20036;-54
2022/07/03 08:14:45;;;;;;;5.88;1.55;;;;;;;21.86;60.32;101852.25;5106057;28;20066;-52
2022/07/03 08:17:10;;;;;;;3.00;1.50;;;;;;;21.90;60.32;101852.25;5086562;28;20055;-53
2022/07/03 08:19:36;;;;;;;5.28;1.77;;;;;;;21.95;60.12;101852.19;5103374;27;20086;-54
2022/07/03 08:22:01;;;;;;;7.72;1.60;;;;;;;22.09;60.25;101854.78;5104632;28;20031;-54
2022/07/03 08:24:27;;;;;;;6.28;1.80;;;;;;;22.08;59.86;101847.78;5107438;27;20031;-54
2022/07/03 08:26:52;;;;;;;4.30;1.70;;;;;;;22.16;61.11;101851.31;5104070;28;20377;-54
2022/07/03 08:29:18;;;;;;;3.92;1.30;;;;;;;22.10;58.90;101856.56;5109365;28;20068;-54
2022/07/03 08:31:43;;;;;;;4.38;1.30;;;;;;;22.15;59.28;101857.44;5109782;27;20036;-52
2022/07/03 08:34:12;;;;;;;3.65;1.20;;;;;;;22.13;57.82;101856.53;5078575;27;20026;-53
2022/07/03 08:36:40;;;;;;;3.50;1.10;;;;;;;22.09;58.69;101860.94;5108112;27;20062;-54
2022/07/03 08:39:05;;;;;;;4.68;1.30;;;;;;;22.15;58.59;101852.19;5110845;27;20133;-54
2022/07/03 08:41:32;;;;;;;2.63;1.20;;;;;;;22.21;58.93;101860.03;5110388;27;20473;-53
2022/07/03 08:43:59;;;;;;;5.38;1.58;;;;;;;22.14;57.82;101856.53;5109429;28;20034;-54
2022/07/03 08:46:26;;;;;;;3.55;1.33;;;;;;;22.27;59.15;101859.13;5111410;28;20394;-53
2022/07/03 08:48:53;;;;;;;4.03;1.50;;;;;;;22.32;58.39;101857.31;5111476;28;20035;-54
2022/07/03 08:51:21;;;;;;;5.82;1.42;;;;;;;22.39;59.26;101854.69;5110321;28;20032;-53
2022/07/03 08:53:47;;;;;;;3.75;1.40;;;;;;;22.43;59.92;101853.78;5108386;27;20422;-53
2022/07/03 08:56:13;;;;;;;1.88;1.30;;;;;;;22.46;57.93;101851.16;5102732;27;20043;-54
2022/07/03 08:58:38;;;;;;;4.38;1.80;;;;;;;22.45;58.20;101853.78;5104435;28;20618;-54
2022/07/03 09:01:05;;;;;;;3.22;1.35;;;;;;;22.54;59.94;101855.47;5106158;27;20122;-53
2022/07/03 09:03:31;;;;;;;3.72;1.30;;;;;;;22.50;59.42;101849.38;5089663;28;20060;-53
2022/07/03 09:05:58;;;;;;;6.93;1.75;;;;;;;22.47;58.01;101854.66;5107705;27;20039;-49
2022/07/03 09:08:25;;;;;;;4.43;1.50;;;;;;;22.54;57.25;101847.63;5086243;28;20035;-53
2022/07/03 09:10:51;;;;;;;4.40;1.42;;;;;;;22.54;55.17;101845.84;5107173;27;20492;-53
2022/07/03 09:13:16;;;;;;;4.28;0.73;;;;;;;22.60;57.40;101837.09;5103565;28;20161;-54
2022/07/03 09:15:44;;;;;;;3.88;1.20;;;;;;;22.70;56.34;101844.03;5101699;27;20404;-54
2022/07/03 09:18:09;;;;;;;2.72;1.10;;;;;;;22.67;56.48;101842.28;5104274;28;20085;-53
2022/07/03 09:20:37;;;;;;;2.53;1.08;;;;;;;22.69;55.58;101844.88;5105046;27;20433;-52
2022/07/03 09:23:16;;;;;;;3.22;1.33;;;;;;;22.71;55.41;101845.75;5104367;27;20034;-54
2022/07/03 09:25:59;;;;;;;3.35;1.30;;;;;;;22.76;56.36;101849.22;5105373;28;20028;-54
2022/07/03 09:28:52;;;;;;;4.90;1.40;;;;;;;22.80;55.45;101855.31;5103538;28;20035;-53
2022/07/03 09:31:24;;;;;;;3.20;1.23;;;;;;;22.68;55.48;101861.50;5105621;27;20024;-54
2022/07/03 09:33:56;;;;;;;6.53;1.50;;;;;;;22.72;55.50;101851.00;5104742;28;20038;-53
2022/07/03 09:36:37;;;;;;;7.30;1.90;;;;;;;22.74;54.84;101853.59;5103394;28;20024;-53
2022/07/03 09:39:30;;;;;;;4.28;1.40;;;;;;;22.89;56.36;101860.53;5103639;28;20399;-53
2022/07/03 09:42:04;;;;;;;3.60;1.38;;;;;;;22.99;56.17;101864.81;5099238;27;20876;-52
2022/07/03 09:44:36;;;;;;;3.78;1.70;;;;;;;23.01;56.60;101866.56;5104400;27;20034;-54
2022/07/03 09:47:18;;;;;;;2.05;1.20;;;;;;;22.96;56.25;101867.47;5100851;27;20122;-54
2022/07/03 09:50:02;;;;;;;3.42;1.33;;;;;;;23.01;56.24;101865.69;5102957;28;20050;-52
2022/07/03 09:52:38;;;;;;;5.85;1.90;;;;;;;23.08;55.71;101870.00;5082887;28;20024;-53
2022/07/03 09:55:09;;;;;;;3.33;1.60;;;;;;;23.04;54.84;101875.28;5103310;27;20020;-52
2022/07/03 09:57:40;;;;;;;6.72;1.95;;;;;;;23.07;55.27;101870.03;5103802;28;20024;-54
2022/07/03 10:00:11;;;;;;;3.80;1.40;;;;;;;23.11;54.84;101866.47;5100094;27;20093;-53
2022/07/03 10:02:57;;;;;;;7.75;1.60;;;;;;;23.23;55.22;101869.00;5101511;28;20128;-54
2022/07/03 10:05:33;;;;;;;4.35;1.80;;;;;;;23.11;54.60;101869.09;5092842;28;20039;-55
2022/07/03 10:08:04;;;;;;;4.63;1.70;;;;;;;23.12;54.44;101870.88;5093116;28;20487;-54
2022/07/03 10:10:32;;;;;;;2.92;1.50;;;;;;;23.07;56.12;101867.41;5090389;28;20085;-54
2022/07/03 10:12:58;;;;;;;5.25;1.75;;;;;;;22.91;54.68;101861.38;5095499;27;20388;-53
2022/07/03 10:15:25;;;;;;;3.85;1.60;;;;;;;22.88;55.01;101867.53;5100678;28;20031;-53
2022/07/03 10:17:56;;;;;;;5.32;2.35;;;;;;;22.86;55.27;101871.00;5103317;28;20164;-52
2022/07/03 10:20:35;;;;;;;4.70;1.50;;;;;;;22.90;55.73;101870.13;5097026;28;20043;-53
2022/07/03 10:23:00;;;;;;;5.53;1.90;;;;;;;22.92;55.28;101874.47;5100230;28;20031;-53
2022/07/03 10:25:26;;;;;;;2.78;1.45;;;;;;;22.93;55.60;101875.34;5103686;28;20446;-52
2022/07/03 10:27:51;;;;;;;3.05;1.35;;;;;;;22.87;55.60;101876.28;5106406;27;20040;-52
2022/07/03 10:30:19;;;;;;;2.45;1.10;;;;;;;22.87;54.84;101873.66;5101280;28;20521;-53
2022/07/03 10:32:48;;;;;;;2.17;1.00;;;;;;;23.04;55.29;101877.91;5099639;28;20462;-53
2022/07/03 10:35:43;;;;;;;2.33;1.00;;;;;;;23.13;54.09;101881.34;5102057;28;20027;-54
2022/07/03 10:38:30;;;;;;;2.63;0.93;;;;;;;23.17;53.54;101887.41;5102500;27;20099;-52
2022/07/03 10:44:46;;;;;;;1.85;0.80;;;;;;;23.21;52.17;101883.91;5001413;28;20398;-52
2022/07/03 10:47:48;;;;;;;2.72;1.00;;;;;;;23.30;52.77;101881.22;5106654;28;20044;-54
2022/07/03 10:50:19;;;;;;;3.58;1.20;;;;;;;23.35;52.79;101878.53;5098944;28;20043;-54
2022/07/03 10:52:44;;;;;;;2.70;1.10;;;;;;;23.37;51.26;101875.00;5102193;28;20038;-54
2022/07/03 10:55:11;;;;;;;3.80;1.20;;;;;;;23.39;52.44;101894.22;5102714;28;20098;-54
2022/07/03 10:57:39;;;;;;;2.90;1.10;;;;;;;23.43;51.39;101885.47;5102446;28;20065;-52
2022/07/03 11:00:08;;;;;;;5.22;1.20;;;;;;;23.47;52.00;101883.66;5102263;28;20104;-53
2022/07/03 11:02:33;;;;;;;;;;;;;;;23.55;52.59;101885.34;5107240;28;20023;-52
2022/07/03 11:05:01;;;;;;;2.85;0.80;;;;;;;23.38;50.77;101886.38;5099780;28;19919;-53
2022/07/03 11:07:52;;;;;;;4.27;0.90;;;;;;;23.41;51.23;101881.09;5102753;28;20023;-53
2022/07/03 11:10:17;;;;;;;3.60;0.95;;;;;;;23.31;51.19;101877.69;5100133;28;20091;-53
2022/07/03 11:13:07;;;;;;;3.70;1.00;;;;;;;23.39;52.37;101883.75;5099816;28;20020;-54
2022/07/03 11:15:42;;;;;;;3.80;1.13;;;;;;;23.42;52.33;101870.59;5097887;28;20108;-54
2022/07/03 11:18:28;;;;;;;3.50;1.33;;;;;;;23.53;52.26;101879.22;5099567;28;20073;-52
2022/07/03 11:20:53;;;;;;;4.50;0.85;;;;;;;23.52;49.65;101868.75;5098602;28;20031;-53
2022/07/03 11:23:28;;;;;;;3.05;1.25;;;;;;;23.49;50.38;101869.66;5097393;27;20032;-52
2022/07/03 11:26:00;;;;;;;3.95;1.00;;;;;;;23.45;51.60;101862.69;5103724;28;20484;-54
2022/07/03 11:28:31;;;;;;;8.05;2.03;;;;;;;23.55;52.14;101869.59;5099532;28;20111;-53
2022/07/03 11:31:18;;;;;;;3.70;1.20;;;;;;;23.62;52.03;101866.94;5101578;28;20028;-54
2022/07/03 11:33:52;;;;;;;3.63;0.95;;;;;;;23.54;51.62;101865.22;5104283;27;20024;-53
2022/07/03 11:36:17;;;;;;;2.47;0.95;;;;;;;23.44;49.22;101863.56;5102642;28;20087;-53
2022/07/03 11:38:44;;;;;;;3.38;0.88;;;;;;;23.49;49.63;101861.78;5103223;28;20748;-53
2022/07/03 11:41:12;;;;;;;3.00;0.90;;;;;;;23.51;49.71;101864.38;5102439;28;20035;-52
2022/07/03 11:43:45;;;;;;;3.65;1.10;;;;;;;23.57;50.98;101855.56;5099973;28;20055;-52
2022/07/03 11:46:16;;;;;;;2.75;0.82;;;;;;;23.60;49.79;101850.28;5099043;28;20035;-53